createdAt,value
2023-04-21T00:02:41.034Z,99526.96
2023-04-21T00:06:39.955Z,99524.36
2023-04-21T00:10:37.947Z,99523.30
2023-04-21T00:14:35.835Z,99519.88
2023-04-21T00:18:34.908Z,99523.27
2023-04-21T00:22:32.896Z,99525.31
2023-04-21T00:26:30.794Z,99526.15
2023-04-21T00:30:28.763Z,99527.67
2023-04-21T00:34:28.847Z,99526.48
2023-04-21T00:38:26.768Z,99524.67
2023-04-21T00:42:24.829Z,99523.67
2023-04-21T00:46:22.884Z,99521.40
2023-04-21T00:50:20.847Z,99520.17
2023-04-21T00:54:19.775Z,99523.40
2023-04-21T00:58:17.786Z,99521.40
2023-04-21T01:02:15.784Z,99525.04
2023-04-21T01:06:14.866Z,99523.94
2023-04-21T01:10:12.712Z,99525.98
2023-04-21T01:14:10.789Z,99527.36
2023-04-21T01:18:08.753Z,99527.64
2023-04-21T01:22:07.804Z,99530.90
2023-04-21T01:26:06.702Z,99535.26
2023-04-21T01:30:06.760Z,99536.90
2023-04-21T01:34:04.832Z,99539.19
2023-04-21T01:38:02.887Z,99539.08
2023-04-21T01:42:02.683Z,99531.61
2023-04-21T01:46:01.746Z,99532.91
2023-04-21T01:50:01.678Z,99536.61
2023-04-21T01:53:59.720Z,99530.13
2023-04-21T01:57:57.661Z,99526.77
2023-04-21T02:01:55.792Z,99523.25
2023-04-21T02:05:54.709Z,99522.52
2023-04-21T02:09:52.668Z,99518.07
2023-04-21T02:13:50.660Z,99520.05
2023-04-21T02:17:49.721Z,99519.04
2023-04-21T02:21:49.780Z,99523.61
2023-04-21T02:25:47.690Z,99523.98
2023-04-21T02:29:45.632Z,99529.26
2023-04-21T02:33:43.667Z,99526.38
2023-04-21T02:37:41.702Z,99525.55
2023-04-21T02:41:39.762Z,99520.86
2023-04-21T02:45:37.617Z,99519.67
2023-04-21T02:49:36.643Z,99519.81
2023-04-21T02:53:36.586Z,99522.20
2023-04-21T02:57:34.616Z,99524.41
2023-04-21T03:01:33.590Z,99525.30
2023-04-21T03:05:32.615Z,99524.44
2023-04-21T03:09:30.578Z,99524.94
2023-04-21T03:13:28.614Z,99524.68
2023-04-21T03:17:26.592Z,99525.02
2023-04-21T03:21:24.542Z,99528.09
2023-04-21T03:25:22.683Z,99523.74
2023-04-21T03:29:20.742Z,99524.00
2023-04-21T03:33:18.622Z,99521.22
2023-04-21T03:37:16.554Z,99522.21
2023-04-21T03:41:14.515Z,99523.40
2023-04-21T03:45:19.618Z,99524.08
2023-04-21T03:49:17.603Z,99526.09
2023-04-21T03:53:15.572Z,99531.33
2023-04-21T03:57:13.650Z,99533.44
2023-04-21T04:01:11.628Z,99530.16
2023-04-21T04:05:09.670Z,99533.30
2023-04-21T04:09:09.635Z,99537.85
2023-04-21T04:13:07.516Z,99544.36
2023-04-21T04:17:07.577Z,99545.45
2023-04-21T04:21:05.464Z,99545.21
2023-04-21T04:25:03.550Z,99545.66
2023-04-21T04:29:02.503Z,99545.58
2023-04-21T04:33:00.639Z,99548.67
2023-04-21T04:36:58.583Z,99545.23
2023-04-21T04:40:56.472Z,99545.33
2023-04-21T04:44:54.699Z,99547.88
2023-04-21T04:48:52.486Z,99549.46
2023-04-21T04:52:54.458Z,99555.48
2023-04-21T04:56:52.523Z,99557.20
2023-04-21T05:00:50.417Z,99556.65
2023-04-21T05:04:51.539Z,99558.76
2023-04-21T05:08:49.443Z,99559.90
2023-04-21T05:12:47.432Z,99556.35
2023-04-21T05:16:45.483Z,99554.92
2023-04-21T05:20:43.469Z,99557.12
2023-04-21T05:24:41.396Z,99557.40
2023-04-21T05:28:40.479Z,99556.76
2023-04-21T05:32:38.513Z,99558.40
2023-04-21T05:36:37.416Z,99553.59
2023-04-21T05:40:35.431Z,99556.54
2023-04-21T05:44:33.403Z,99554.43
2023-04-21T05:48:31.395Z,99554.86
2023-04-21T05:52:31.529Z,99550.27
2023-04-21T05:56:29.394Z,99548.83
2023-04-21T06:00:09.993Z,99551.52
2023-04-21T06:03:35.005Z,99552.79
2023-04-21T06:06:58.961Z,99546.81
2023-04-21T06:10:23.142Z,99549.91
2023-04-21T06:13:47.017Z,99544.33
2023-04-21T06:17:10.842Z,99545.20
2023-04-21T06:20:34.717Z,99545.02
2023-04-21T06:23:58.756Z,99543.19
2023-04-21T06:27:23.878Z,99544.70
2023-04-21T06:30:47.662Z,99542.04
2023-04-21T06:34:11.635Z,99540.52
2023-04-21T06:37:35.448Z,99541.41
2023-04-21T06:40:59.602Z,99543.46
2023-04-21T06:44:23.570Z,99537.09
2023-04-21T06:47:47.605Z,99538.52
2023-04-21T06:51:11.396Z,99541.27
2023-04-21T06:54:35.412Z,99535.02
2023-04-21T06:57:59.308Z,99540.52
2023-04-21T07:01:24.583Z,99536.20
2023-04-21T07:04:50.695Z,99538.98
2023-04-21T07:08:14.624Z,99536.74
2023-04-21T07:11:38.822Z,99540.44
2023-04-21T07:15:02.909Z,99540.54
2023-04-21T07:18:26.914Z,99543.92
2023-04-21T07:21:50.774Z,99545.95
2023-04-21T07:25:14.646Z,99543.27
2023-04-21T07:28:40.873Z,99541.73
2023-04-21T07:32:04.864Z,99537.42
2023-04-21T07:35:28.939Z,99538.11
2023-04-21T07:38:52.756Z,99537.49
2023-04-21T07:42:16.697Z,99535.56
2023-04-21T07:45:40.489Z,99532.25
2023-04-21T07:49:04.372Z,99532.16
2023-04-21T07:52:28.340Z,99523.68
2023-04-21T07:55:52.208Z,99522.85
2023-04-21T07:59:16.076Z,99517.63
2023-04-21T08:02:40.290Z,99510.41
2023-04-21T08:06:04.970Z,99510.17
2023-04-21T08:09:29.212Z,99504.83
2023-04-21T08:12:53.143Z,99509.16
2023-04-21T08:16:17.288Z,99503.59
2023-04-21T08:19:41.720Z,99502.16
2023-04-21T08:23:05.825Z,99497.46
2023-04-21T08:26:30.248Z,99496.84
2023-04-21T08:29:54.180Z,99500.55
2023-04-21T08:33:18.035Z,99493.73
2023-04-21T08:36:42.914Z,99499.10
2023-04-21T08:40:07.597Z,99494.98
2023-04-21T08:43:31.483Z,99495.16
2023-04-21T08:46:57.744Z,99492.25
2023-04-21T08:50:23.712Z,99490.93
2023-04-21T08:53:47.641Z,99483.05
2023-04-21T08:57:15.984Z,99486.60
2023-04-21T09:00:41.541Z,99489.52
2023-04-21T09:04:18.124Z,99483.50
2023-04-21T09:07:42.284Z,99482.77
2023-04-21T09:11:06.712Z,99479.25
2023-04-21T09:14:33.956Z,99473.84
2023-04-21T09:17:58.255Z,99464.96
2023-04-21T09:21:31.419Z,99471.23
2023-04-21T09:25:00.838Z,99467.19
2023-04-21T09:28:24.786Z,99457.21
2023-04-21T09:31:48.619Z,99461.34
2023-04-21T09:35:12.851Z,99455.70
2023-04-21T09:38:36.672Z,99453.32
2023-04-21T09:42:01.891Z,99453.27
2023-04-21T09:45:39.030Z,99456.05
2023-04-21T09:49:04.807Z,99452.52
2023-04-21T09:52:30.321Z,99450.56
2023-04-21T09:55:56.686Z,99443.95
2023-04-21T09:59:26.152Z,99443.81
2023-04-21T10:02:51.620Z,99440.79
2023-04-21T10:06:16.963Z,99440.65
2023-04-21T10:09:51.802Z,99432.66
2023-04-21T10:13:18.864Z,99437.71
2023-04-21T10:16:43.994Z,99435.70
2023-04-21T10:20:10.270Z,99433.64
2023-04-21T10:23:41.163Z,99432.94
2023-04-21T10:27:05.210Z,99429.29
2023-04-21T10:30:29.122Z,99427.61
2023-04-21T10:34:08.473Z,99420.04
2023-04-21T10:37:32.656Z,99411.95
2023-04-21T10:41:27.155Z,99411.23
2023-04-21T10:44:59.928Z,99409.17
2023-04-21T10:48:23.891Z,99410.96
2023-04-21T10:52:00.192Z,99413.45
2023-04-21T10:55:27.704Z,99406.19
2023-04-21T10:58:52.661Z,99408.58
2023-04-21T11:02:18.390Z,99401.75
2023-04-21T11:05:42.981Z,99396.27
2023-04-21T11:09:07.050Z,99392.48
2023-04-21T11:12:40.222Z,99389.61
2023-04-21T11:16:07.523Z,99380.77
2023-04-21T11:19:34.287Z,99379.96
2023-04-21T11:23:00.754Z,99377.97
2023-04-21T11:26:32.957Z,99377.46
2023-04-21T11:29:57.343Z,99378.77
2023-04-21T11:33:21.440Z,99374.66
2023-04-21T11:36:46.546Z,99367.55
2023-04-21T11:40:11.187Z,99367.58
2023-04-21T11:43:35.111Z,99367.55
2023-04-21T11:46:59.191Z,99370.20
2023-04-21T11:50:34.399Z,99365.41
2023-04-21T11:54:00.878Z,99361.86
2023-04-21T11:57:26.574Z,99359.10
2023-04-21T12:00:54.314Z,99355.14
2023-04-21T12:04:21.696Z,99356.97
2023-04-21T12:07:49.337Z,99351.58
2023-04-21T12:11:13.378Z,99352.07
2023-04-21T12:14:37.363Z,99340.83
2023-04-21T12:18:01.326Z,99342.43
2023-04-21T12:21:31.493Z,99337.55
2023-04-21T12:24:55.453Z,99337.88
2023-04-21T12:28:19.538Z,99328.65
2023-04-21T12:31:43.461Z,99330.06
2023-04-21T12:35:08.182Z,99327.51
2023-04-21T12:38:32.810Z,99320.98
2023-04-21T12:41:57.925Z,99314.17
2023-04-21T12:45:21.918Z,99305.45
2023-04-21T12:48:45.849Z,99308.30
2023-04-21T12:52:09.989Z,99310.17
2023-04-21T12:55:37.155Z,99311.27
2023-04-21T12:59:01.161Z,99312.42
2023-04-21T13:02:25.100Z,99314.88
2023-04-21T13:05:49.743Z,99305.86
2023-04-21T13:09:13.621Z,99299.80
2023-04-21T13:12:37.541Z,99297.85
2023-04-21T13:16:01.489Z,99290.00
2023-04-21T13:19:25.911Z,99289.23
2023-04-21T13:22:50.032Z,99288.29
2023-04-21T13:26:13.878Z,99290.90
2023-04-21T13:29:37.834Z,99287.14
2023-04-21T13:33:21.932Z,99286.04
2023-04-21T13:37:22.975Z,99281.22
2023-04-21T13:41:20.873Z,99275.53
2023-04-21T13:45:18.922Z,99279.45
2023-04-21T13:49:17.004Z,99274.65
2023-04-21T13:53:14.891Z,99264.95
2023-04-21T13:57:14.008Z,99266.73
2023-04-21T14:01:12.120Z,99266.61
2023-04-21T14:05:10.222Z,99264.47
2023-04-21T14:09:07.917Z,99257.92
2023-04-21T14:13:05.925Z,99264.02
2023-04-21T14:17:03.842Z,99256.89
2023-04-21T14:21:02.112Z,99252.27
2023-04-21T14:24:59.962Z,99246.21
2023-04-21T14:28:57.889Z,99241.98
2023-04-21T14:32:55.896Z,99235.99
2023-04-21T14:36:56.985Z,99232.40
2023-04-21T14:40:55.873Z,99231.83
2023-04-21T14:44:53.955Z,99231.65
2023-04-21T14:48:51.956Z,99229.27
2023-04-21T14:52:49.864Z,99227.54
2023-04-21T14:56:48.822Z,99225.79
2023-04-21T15:00:47.956Z,99214.98
2023-04-21T15:04:45.973Z,99219.60
2023-04-21T15:08:46.310Z,99206.42
2023-04-21T15:12:45.833Z,99205.80
2023-04-21T15:16:43.951Z,99206.11
2023-04-21T15:20:45.370Z,99206.48
2023-04-21T15:24:43.930Z,99198.34
2023-04-21T15:28:48.792Z,99195.09
2023-04-21T15:32:46.928Z,99192.13
2023-04-21T15:36:44.784Z,99192.67
2023-04-21T15:40:59.152Z,99187.16
2023-04-21T15:44:57.775Z,99185.38
2023-04-21T15:48:55.819Z,99186.50
2023-04-21T15:52:53.886Z,99189.94
2023-04-21T15:56:51.789Z,99186.23
2023-04-21T16:00:49.792Z,99187.02
2023-04-21T16:04:48.077Z,99182.80
2023-04-21T16:08:45.871Z,99180.64
2023-04-21T16:12:43.768Z,99187.15
2023-04-21T16:16:42.845Z,99184.72
2023-04-21T16:20:40.896Z,99181.74
2023-04-21T16:24:39.300Z,99182.95
2023-04-21T16:28:38.854Z,99182.46
2023-04-21T16:32:37.984Z,99183.59
2023-04-21T16:36:35.829Z,99187.13
2023-04-21T16:40:36.072Z,99183.20
2023-04-21T16:44:33.712Z,99180.34
2023-04-21T16:48:32.840Z,99181.16
2023-04-21T16:52:30.825Z,99182.52
2023-04-21T16:56:28.704Z,99178.45
2023-04-21T17:00:26.804Z,99174.27
2023-04-21T17:04:24.687Z,99173.16
2023-04-21T17:08:22.768Z,99170.61
2023-04-21T17:12:20.700Z,99174.86
2023-04-21T17:16:18.708Z,99177.98
2023-04-21T17:20:16.794Z,99176.77
2023-04-21T17:24:14.673Z,99174.38
2023-04-21T17:28:12.637Z,99179.06
2023-04-21T17:32:10.879Z,99179.91
2023-04-21T17:36:08.588Z,99180.93
2023-04-21T17:40:08.721Z,99184.24
2023-04-21T17:44:07.707Z,99187.77
2023-04-21T17:48:05.750Z,99190.15
2023-04-21T17:52:03.633Z,99191.67
2023-04-21T17:56:02.696Z,99190.45
2023-04-21T18:00:00.600Z,99194.50
2023-04-21T18:04:01.980Z,99195.99
2023-04-21T18:07:59.696Z,99200.67
2023-04-21T18:11:57.719Z,99204.09
2023-04-21T18:15:55.880Z,99204.83
2023-04-21T18:19:53.534Z,99209.39
2023-04-21T18:23:52.639Z,99212.50
2023-04-21T18:27:50.616Z,99211.30
2023-04-21T18:31:48.606Z,99207.77
2023-04-21T18:35:46.686Z,99212.88
2023-04-21T18:39:44.574Z,99212.55
2023-04-21T18:43:43.611Z,99210.73
2023-04-21T18:47:41.610Z,99212.83
2023-04-21T18:51:39.647Z,99216.29
2023-04-21T18:55:37.652Z,99210.23
2023-04-21T18:59:35.568Z,99213.42
2023-04-21T19:03:33.638Z,99209.96
2023-04-21T19:07:31.578Z,99204.17
2023-04-21T19:11:29.628Z,99204.77
2023-04-21T19:15:27.561Z,99208.14
2023-04-21T19:19:25.588Z,99205.16
2023-04-21T19:23:25.708Z,99210.00
2023-04-21T19:27:23.585Z,99212.92
2023-04-21T19:31:22.609Z,99212.25
2023-04-21T19:35:21.524Z,99208.21
2023-04-21T19:39:19.571Z,99206.71
2023-04-21T19:43:17.494Z,99206.21
2023-04-21T19:47:15.587Z,99205.32
2023-04-21T19:51:14.529Z,99207.55
2023-04-21T19:55:12.515Z,99210.23
2023-04-21T19:59:11.568Z,99210.64
2023-04-21T20:03:11.679Z,99210.38
2023-04-21T20:07:09.479Z,99215.33
2023-04-21T20:11:07.512Z,99213.56
2023-04-21T20:15:05.565Z,99214.12
2023-04-21T20:19:04.470Z,99217.52
2023-04-21T20:23:03.438Z,99217.64
2023-04-21T20:27:01.461Z,99217.06
2023-04-21T20:30:59.565Z,99214.63
2023-04-21T20:34:58.501Z,99218.90
2023-04-21T20:38:57.399Z,99219.83
2023-04-21T20:42:58.495Z,99217.52
2023-04-21T20:46:56.499Z,99212.98
2023-04-21T20:50:54.461Z,99212.35
2023-04-21T20:54:52.423Z,99214.16
2023-04-21T20:58:52.655Z,99216.20
2023-04-21T21:02:50.628Z,99213.80
2023-04-21T21:06:48.423Z,99215.84
2023-04-21T21:10:48.480Z,99215.45
2023-04-21T21:14:47.405Z,99213.42
2023-04-21T21:18:45.423Z,99212.73
2023-04-21T21:22:43.368Z,99212.33
2023-04-21T21:26:42.855Z,99209.36
2023-04-21T21:30:40.482Z,99211.79
2023-04-21T21:34:38.358Z,99211.73
2023-04-21T21:38:38.626Z,99213.08
2023-04-21T21:42:36.355Z,99214.36
2023-04-21T21:46:34.484Z,99215.25
2023-04-21T21:50:32.423Z,99211.20
2023-04-21T21:54:30.396Z,99213.23
2023-04-21T21:58:28.480Z,99212.56
2023-04-21T22:02:26.400Z,99212.45
2023-04-21T22:06:24.397Z,99209.85
2023-04-21T22:10:23.438Z,99210.23
2023-04-21T22:14:23.640Z,99211.69
2023-04-21T22:18:21.346Z,99211.46
2023-04-21T22:22:19.327Z,99214.98
2023-04-21T22:26:17.405Z,99212.92
2023-04-21T22:30:15.394Z,99216.21
2023-04-21T22:34:13.358Z,99215.52
2023-04-21T22:38:11.253Z,99217.35
2023-04-21T22:42:09.275Z,99210.84
2023-04-21T22:46:08.332Z,99216.09
2023-04-21T22:50:06.402Z,99210.86
2023-04-21T22:54:04.396Z,99212.17
2023-04-21T22:58:02.357Z,99211.33
2023-04-21T23:02:00.437Z,99209.83
2023-04-21T23:05:58.328Z,99208.34
2023-04-21T23:09:56.228Z,99209.16
2023-04-21T23:13:54.274Z,99212.14
2023-04-21T23:17:52.322Z,99211.27
2023-04-21T23:21:50.235Z,99210.39
2023-04-21T23:25:48.212Z,99208.33
2023-04-21T23:29:46.294Z,99211.08
2023-04-21T23:33:44.183Z,99207.71
2023-04-21T23:37:42.250Z,99211.17
2023-04-21T23:41:40.263Z,99208.47
2023-04-21T23:45:38.257Z,99208.55
2023-04-21T23:49:36.382Z,99206.64
2023-04-21T23:53:34.217Z,99205.20
2023-04-21T23:57:32.174Z,99206.34
